sensor_id;sensor_type;location;lat;lon;timestamp;pressure;altitude;pressure_sealevel;temperature;humidity
21817;BME280;13247;47.504;7.382;2023-02-28T00:01:28;97696.22;;;1.46;77.65
21817;BME280;13247;47.504;7.382;2023-02-28T00:04:12;97698.03;;;1.51;77.29
21817;BME280;13247;47.504;7.382;2023-02-28T00:06:57;97697.00;;;1.34;80.15
21817;BME280;13247;47.504;7.382;2023-02-28T00:09:41;97694.56;;;1.51;79.57
21817;BME280;13247;47.504;7.382;2023-02-28T00:12:26;97694.78;;;1.72;77.77
21817;BME280;13247;47.504;7.382;2023-02-28T00:15:11;97693.69;;;1.50;78.75
21817;BME280;13247;47.504;7.382;2023-02-28T00:17:56;97695.31;;;1.39;81.04
21817;BME280;13247;47.504;7.382;2023-02-28T00:20:41;97694.63;;;1.54;78.61
21817;BME280;13247;47.504;7.382;2023-02-28T00:23:27;97686.00;;;1.53;77.76
21817;BME280;13247;47.504;7.382;2023-02-28T00:26:11;97688.53;;;1.47;80.26
21817;BME280;13247;47.504;7.382;2023-02-28T00:28:56;97690.94;;;1.32;80.32
21817;BME280;13247;47.504;7.382;2023-02-28T00:31:40;97692.00;;;1.49;80.48
21817;BME280;13247;47.504;7.382;2023-02-28T00:34:25;97693.84;;;1.64;78.99
21817;BME280;13247;47.504;7.382;2023-02-28T00:37:11;97692.78;;;1.42;79.85
21817;BME280;13247;47.504;7.382;2023-02-28T00:39:59;97697.09;;;1.45;77.46
21817;BME280;13247;47.504;7.382;2023-02-28T00:42:43;97692.72;;;1.39;80.02
21817;BME280;13247;47.504;7.382;2023-02-28T00:45:28;97696.28;;;1.50;77.08
21817;BME280;13247;47.504;7.382;2023-02-28T00:48:12;97689.38;;;1.46;79.98
21817;BME280;13247;47.504;7.382;2023-02-28T00:50:57;97692.81;;;1.45;78.32
21817;BME280;13247;47.504;7.382;2023-02-28T00:53:42;97697.09;;;1.45;79.14
21817;BME280;13247;47.504;7.382;2023-02-28T00:56:26;97691.94;;;1.45;78.93
21817;BME280;13247;47.504;7.382;2023-02-28T00:59:11;97689.41;;;1.51;78.30
21817;BME280;13247;47.504;7.382;2023-02-28T01:01:56;97682.50;;;1.50;80.03
21817;BME280;13247;47.504;7.382;2023-02-28T01:04:40;97685.94;;;1.49;79.15
21817;BME280;13247;47.504;7.382;2023-02-28T01:07:25;97688.59;;;1.53;79.68
21817;BME280;13247;47.504;7.382;2023-02-28T01:10:10;97690.28;;;1.51;79.79
21817;BME280;13247;47.504;7.382;2023-02-28T01:12:55;97682.59;;;1.60;78.94
21817;BME280;13247;47.504;7.382;2023-02-28T01:15:43;97679.91;;;1.48;77.77
21817;BME280;13247;47.504;7.382;2023-02-28T01:18:30;97686.88;;;1.58;78.58
21817;BME280;13247;47.504;7.382;2023-02-28T01:21:17;97681.66;;;1.51;77.61
21817;BME280;13247;47.504;7.382;2023-02-28T01:24:04;97679.91;;;1.50;78.63
21817;BME280;13247;47.504;7.382;2023-02-28T01:26:49;97680.56;;;1.26;79.79
21817;BME280;13247;47.504;7.382;2023-02-28T01:29:33;97683.31;;;1.41;79.81
21817;BME280;13247;47.504;7.382;2023-02-28T01:32:18;97675.50;;;1.37;79.61
21817;BME280;13247;47.504;7.382;2023-02-28T01:35:02;97672.97;;;1.44;81.37
21817;BME280;13247;47.504;7.382;2023-02-28T01:37:47;97676.53;;;1.55;80.52
21817;BME280;13247;47.504;7.382;2023-02-28T01:40:32;97672.06;;;1.39;81.58
21817;BME280;13247;47.504;7.382;2023-02-28T01:46:07;97670.44;;;1.47;79.89
21817;BME280;13247;47.504;7.382;2023-02-28T01:51:49;97668.63;;;1.40;80.65
21817;BME280;13247;47.504;7.382;2023-02-28T01:54:39;97666.88;;;1.39;81.75
21817;BME280;13247;47.504;7.382;2023-02-28T01:57:27;97661.91;;;1.60;80.73
21817;BME280;13247;47.504;7.382;2023-02-28T02:00:16;97660.94;;;1.43;80.50
21817;BME280;13247;47.504;7.382;2023-02-28T02:03:08;97670.38;;;1.43;83.38
21817;BME280;13247;47.504;7.382;2023-02-28T02:05:53;97659.28;;;1.54;84.24
21817;BME280;13247;47.504;7.382;2023-02-28T02:08:38;97651.50;;;1.50;84.26
21817;BME280;13247;47.504;7.382;2023-02-28T02:11:23;97660.09;;;1.49;85.68
21817;BME280;13247;47.504;7.382;2023-02-28T02:17:10;97656.66;;;1.50;85.41
21817;BME280;13247;47.504;7.382;2023-02-28T02:32:45;97650.34;;;1.18;85.12
21817;BME280;13247;47.504;7.382;2023-02-28T02:36:09;97644.31;;;1.19;85.94
21817;BME280;13247;47.504;7.382;2023-02-28T02:41:53;97636.72;;;1.34;85.44
21817;BME280;13247;47.504;7.382;2023-02-28T02:44:49;97637.22;;;1.00;88.50
21817;BME280;13247;47.504;7.382;2023-02-28T02:47:35;97646.72;;;1.02;89.48
21817;BME280;13247;47.504;7.382;2023-02-28T02:50:29;97647.44;;;0.88;87.68
21817;BME280;13247;47.504;7.382;2023-02-28T02:53:18;97649.81;;;0.71;85.12
21817;BME280;13247;47.504;7.382;2023-02-28T02:56:06;97654.03;;;0.63;86.88
21817;BME280;13247;47.504;7.382;2023-02-28T02:58:53;97654.84;;;0.60;86.73
21817;BME280;13247;47.504;7.382;2023-02-28T03:01:40;97659.06;;;0.55;87.78
21817;BME280;13247;47.504;7.382;2023-02-28T03:04:30;97654.22;;;0.82;84.89
21817;BME280;13247;47.504;7.382;2023-02-28T03:07:16;97654.78;;;0.54;86.48
21817;BME280;13247;47.504;7.382;2023-02-28T03:10:01;97654.78;;;0.56;89.65
21817;BME280;13247;47.504;7.382;2023-02-28T03:12:55;97658.38;;;0.70;88.72
21817;BME280;13247;47.504;7.382;2023-02-28T03:19:24;97659.78;;;0.44;91.70
21817;BME280;13247;47.504;7.382;2023-02-28T03:25:53;97658.69;;;0.27;97.05
21817;BME280;13247;47.504;7.382;2023-02-28T03:31:54;97653.47;;;0.21;100.00
21817;BME280;13247;47.504;7.382;2023-02-28T03:35:01;97656.72;;;0.09;100.00
21817;BME280;13247;47.504;7.382;2023-02-28T03:38:03;97660.03;;;0.00;100.00
21817;BME280;13247;47.504;7.382;2023-02-28T03:40:58;97664.34;;;0.00;100.00
21817;BME280;13247;47.504;7.382;2023-02-28T03:44:16;97663.25;;;-0.13;100.00
21817;BME280;13247;47.504;7.382;2023-02-28T03:47:08;97661.28;;;-0.29;100.00
21817;BME280;13247;47.504;7.382;2023-02-28T03:49:57;97666.06;;;-0.53;100.00
21817;BME280;13247;47.504;7.382;2023-02-28T03:52:53;97671.13;;;-0.57;100.00
21817;BME280;13247;47.504;7.382;2023-02-28T03:55:52;97671.06;;;-0.60;100.00
21817;BME280;13247;47.504;7.382;2023-02-28T03:59:02;97671.31;;;-0.47;100.00
21817;BME280;13247;47.504;7.382;2023-02-28T04:01:50;97677.22;;;-0.52;100.00
21817;BME280;13247;47.504;7.382;2023-02-28T04:04:36;97677.72;;;-0.73;100.00
21817;BME280;13247;47.504;7.382;2023-02-28T04:07:21;97681.66;;;-0.93;100.00
21817;BME280;13247;47.504;7.382;2023-02-28T04:10:07;97686.47;;;-0.63;100.00
21817;BME280;13247;47.504;7.382;2023-02-28T04:12:52;97687.03;;;-0.78;100.00
21817;BME280;13247;47.504;7.382;2023-02-28T04:15:36;97689.50;;;-0.86;100.00
21817;BME280;13247;47.504;7.382;2023-02-28T04:18:21;97690.47;;;-0.79;100.00
21817;BME280;13247;47.504;7.382;2023-02-28T04:21:06;97686.59;;;-1.02;100.00
21817;BME280;13247;47.504;7.382;2023-02-28T04:23:51;97692.84;;;-0.90;100.00
21817;BME280;13247;47.504;7.382;2023-02-28T04:26:36;97700.66;;;-0.85;100.00
21817;BME280;13247;47.504;7.382;2023-02-28T04:29:29;97702.88;;;-0.57;100.00
21817;BME280;13247;47.504;7.382;2023-02-28T04:32:14;97700.97;;;-0.68;100.00
21817;BME280;13247;47.504;7.382;2023-02-28T04:34:59;97705.22;;;-0.72;100.00
21817;BME280;13247;47.504;7.382;2023-02-28T04:37:43;97703.53;;;-0.70;100.00
21817;BME280;13247;47.504;7.382;2023-02-28T04:40:28;97705.41;;;-0.60;100.00
21817;BME280;13247;47.504;7.382;2023-02-28T04:43:12;97699.78;;;-0.86;100.00
21817;BME280;13247;47.504;7.382;2023-02-28T04:46:00;97708.09;;;-0.99;100.00
21817;BME280;13247;47.504;7.382;2023-02-28T04:48:45;97697.69;;;-1.05;100.00
21817;BME280;13247;47.504;7.382;2023-02-28T04:51:30;97703.28;;;-0.82;100.00
21817;BME280;13247;47.504;7.382;2023-02-28T04:54:15;97698.91;;;-0.86;100.00
21817;BME280;13247;47.504;7.382;2023-02-28T04:57:00;97706.91;;;-0.72;100.00
21817;BME280;13247;47.504;7.382;2023-02-28T04:59:46;97715.31;;;-0.83;100.00
21817;BME280;13247;47.504;7.382;2023-02-28T05:02:30;97706.63;;;-0.88;100.00
21817;BME280;13247;47.504;7.382;2023-02-28T05:05:15;97710.84;;;-0.91;100.00
21817;BME280;13247;47.504;7.382;2023-02-28T05:08:02;97706.88;;;-1.17;100.00
21817;BME280;13247;47.504;7.382;2023-02-28T05:10:47;97712.22;;;-1.08;100.00
21817;BME280;13247;47.504;7.382;2023-02-28T05:13:32;97720.16;;;-0.98;100.00
21817;BME280;13247;47.504;7.382;2023-02-28T05:16:17;97719.09;;;-1.07;100.00
21817;BME280;13247;47.504;7.382;2023-02-28T05:19:02;97726.00;;;-1.05;100.00
21817;BME280;13247;47.504;7.382;2023-02-28T05:21:54;97724.94;;;-0.71;100.00
21817;BME280;13247;47.504;7.382;2023-02-28T05:24:39;97729.97;;;-0.77;100.00
21817;BME280;13247;47.504;7.382;2023-02-28T05:27:23;97731.69;;;-0.76;100.00
21817;BME280;13247;47.504;7.382;2023-02-28T05:30:11;97735.81;;;-0.86;100.00
21817;BME280;13247;47.504;7.382;2023-02-28T05:32:56;97729.50;;;-0.56;100.00
21817;BME280;13247;47.504;7.382;2023-02-28T05:35:41;97728.06;;;-0.42;100.00
21817;BME280;13247;47.504;7.382;2023-02-28T05:38:26;97717.47;;;-0.57;100.00
21817;BME280;13247;47.504;7.382;2023-02-28T05:41:11;97726.94;;;-0.55;100.00
21817;BME280;13247;47.504;7.382;2023-02-28T05:43:57;97723.91;;;-0.34;100.00
21817;BME280;13247;47.504;7.382;2023-02-28T05:46:43;97728.19;;;-0.33;100.00
21817;BME280;13247;47.504;7.382;2023-02-28T05:49:27;97720.16;;;-0.53;100.00
21817;BME280;13247;47.504;7.382;2023-02-28T05:52:12;97721.25;;;-0.37;100.00
21817;BME280;13247;47.504;7.382;2023-02-28T05:54:56;97726.50;;;-0.33;100.00
21817;BME280;13247;47.504;7.382;2023-02-28T05:57:41;97724.34;;;-0.58;100.00
21817;BME280;13247;47.504;7.382;2023-02-28T06:00:27;97720.44;;;-0.35;100.00
21817;BME280;13247;47.504;7.382;2023-02-28T06:03:12;97726.25;;;-0.46;100.00
21817;BME280;13247;47.504;7.382;2023-02-28T06:05:56;97730.91;;;-0.26;100.00
21817;BME280;13247;47.504;7.382;2023-02-28T06:08:41;97731.84;;;-0.22;100.00
21817;BME280;13247;47.504;7.382;2023-02-28T06:11:28;97732.53;;;-0.31;100.00
21817;BME280;13247;47.504;7.382;2023-02-28T06:14:16;97733.69;;;-0.15;100.00
21817;BME280;13247;47.504;7.382;2023-02-28T06:17:02;97733.88;;;-0.02;100.00
21817;BME280;13247;47.504;7.382;2023-02-28T06:19:47;97740.81;;;0.03;100.00
21817;BME280;13247;47.504;7.382;2023-02-28T06:22:32;97738.16;;;-0.02;100.00
21817;BME280;13247;47.504;7.382;2023-02-28T06:25:17;97729.75;;;0.08;100.00
21817;BME280;13247;47.504;7.382;2023-02-28T06:28:02;97746.91;;;-0.43;100.00
21817;BME280;13247;47.504;7.382;2023-02-28T06:30:46;97740.88;;;-0.44;100.00
21817;BME280;13247;47.504;7.382;2023-02-28T06:33:30;97752.63;;;-0.12;100.00
21817;BME280;13247;47.504;7.382;2023-02-28T06:36:16;97748.81;;;-0.33;100.00
21817;BME280;13247;47.504;7.382;2023-02-28T06:39:00;97751.28;;;-0.38;100.00
21817;BME280;13247;47.504;7.382;2023-02-28T06:41:45;97747.19;;;-0.28;100.00
21817;BME280;13247;47.504;7.382;2023-02-28T06:44:32;97753.34;;;-0.20;100.00
21817;BME280;13247;47.504;7.382;2023-02-28T06:47:19;97755.44;;;0.02;100.00
21817;BME280;13247;47.504;7.382;2023-02-28T06:50:05;97754.13;;;-0.23;100.00
21817;BME280;13247;47.504;7.382;2023-02-28T06:52:50;97755.38;;;-0.01;100.00
21817;BME280;13247;47.504;7.382;2023-02-28T06:55:39;97750.38;;;0.08;100.00
21817;BME280;13247;47.504;7.382;2023-02-28T06:58:23;97748.97;;;-0.24;100.00
21817;BME280;13247;47.504;7.382;2023-02-28T07:01:09;97748.97;;;-0.24;100.00
21817;BME280;13247;47.504;7.382;2023-02-28T07:03:54;97753.31;;;-0.22;100.00
21817;BME280;13247;47.504;7.382;2023-02-28T07:06:39;97757.44;;;-0.31;100.00
21817;BME280;13247;47.504;7.382;2023-02-28T07:09:23;97761.66;;;-0.36;100.00
21817;BME280;13247;47.504;7.382;2023-02-28T07:12:08;97759.88;;;-0.40;100.00
21817;BME280;13247;47.504;7.382;2023-02-28T07:14:52;97764.97;;;-0.42;100.00
21817;BME280;13247;47.504;7.382;2023-02-28T07:17:38;97774.81;;;-0.21;100.00
21817;BME280;13247;47.504;7.382;2023-02-28T07:20:24;97763.00;;;-0.07;100.00
21817;BME280;13247;47.504;7.382;2023-02-28T07:23:09;97774.25;;;-0.02;100.00
21817;BME280;13247;47.504;7.382;2023-02-28T07:25:53;97777.63;;;-0.06;100.00
21817;BME280;13247;47.504;7.382;2023-02-28T07:28:38;97774.16;;;-0.08;100.00
21817;BME280;13247;47.504;7.382;2023-02-28T07:31:23;97777.59;;;-0.08;100.00
21817;BME280;13247;47.504;7.382;2023-02-28T07:34:07;97786.06;;;-0.15;100.00
21817;BME280;13247;47.504;7.382;2023-02-28T07:36:55;97782.06;;;-0.45;100.00
21817;BME280;13247;47.504;7.382;2023-02-28T07:39:40;97787.69;;;-0.21;100.00
21817;BME280;13247;47.504;7.382;2023-02-28T07:42:26;97784.41;;;-0.11;100.00
21817;BME280;13247;47.504;7.382;2023-02-28T07:45:11;97789.00;;;-0.43;100.00
21817;BME280;13247;47.504;7.382;2023-02-28T07:47:56;97796.91;;;-0.77;100.00
21817;BME280;13247;47.504;7.382;2023-02-28T07:50:41;97799.59;;;-0.72;100.00
21817;BME280;13247;47.504;7.382;2023-02-28T07:53:26;97792.53;;;-0.81;100.00
21817;BME280;13247;47.504;7.382;2023-02-28T07:56:11;97788.69;;;-0.59;100.00
21817;BME280;13247;47.504;7.382;2023-02-28T07:58:55;97792.97;;;-0.58;100.00
21817;BME280;13247;47.504;7.382;2023-02-28T08:01:40;97801.97;;;-0.38;100.00
21817;BME280;13247;47.504;7.382;2023-02-28T08:04:25;97786.13;;;-0.59;100.00
21817;BME280;13247;47.504;7.382;2023-02-28T08:07:12;97800.63;;;-0.63;100.00
21817;BME280;13247;47.504;7.382;2023-02-28T08:09:57;97799.69;;;-0.66;100.00
21817;BME280;13247;47.504;7.382;2023-02-28T08:12:41;97805.47;;;-0.33;100.00
21817;BME280;13247;47.504;7.382;2023-02-28T08:15:26;97806.88;;;-0.50;100.00
21817;BME280;13247;47.504;7.382;2023-02-28T08:18:11;97812.91;;;-0.50;100.00
21817;BME280;13247;47.504;7.382;2023-02-28T08:20:56;97813.69;;;-0.52;100.00
21817;BME280;13247;47.504;7.382;2023-02-28T08:23:41;97809.06;;;-0.25;100.00
21817;BME280;13247;47.504;7.382;2023-02-28T08:26:26;97810.19;;;-0.57;100.00
21817;BME280;13247;47.504;7.382;2023-02-28T08:29:11;97805.88;;;-0.57;100.00
21817;BME280;13247;47.504;7.382;2023-02-28T08:31:55;97801.22;;;-0.31;100.00
21817;BME280;13247;47.504;7.382;2023-02-28T08:34:41;97808.44;;;-0.57;100.00
21817;BME280;13247;47.504;7.382;2023-02-28T08:37:26;97810.63;;;-0.33;100.00
21817;BME280;13247;47.504;7.382;2023-02-28T08:40:11;97810.88;;;-0.21;100.00
21817;BME280;13247;47.504;7.382;2023-02-28T08:42:58;97814.06;;;-0.34;100.00
21817;BME280;13247;47.504;7.382;2023-02-28T08:45:43;97808.63;;;-0.48;100.00
21817;BME280;13247;47.504;7.382;2023-02-28T08:48:30;97813.28;;;-0.30;100.00
21817;BME280;13247;47.504;7.382;2023-02-28T08:51:17;97815.66;;;0.09;100.00
21817;BME280;13247;47.504;7.382;2023-02-28T08:54:10;97819.09;;;0.08;100.00
21817;BME280;13247;47.504;7.382;2023-02-28T08:57:00;97821.59;;;0.03;100.00
21817;BME280;13247;47.504;7.382;2023-02-28T08:59:45;97828.53;;;0.07;100.00
21817;BME280;13247;47.504;7.382;2023-02-28T09:02:30;97822.03;;;0.27;100.00
21817;BME280;13247;47.504;7.382;2023-02-28T09:05:14;97825.84;;;-0.01;100.00
21817;BME280;13247;47.504;7.382;2023-02-28T09:07:59;97816.41;;;0.00;100.00
21817;BME280;13247;47.504;7.382;2023-02-28T09:10:44;97814.53;;;-0.09;100.00
21817;BME280;13247;47.504;7.382;2023-02-28T09:13:28;97824.00;;;-0.08;100.00
21817;BME280;13247;47.504;7.382;2023-02-28T09:16:15;97824.59;;;-0.22;100.00
21817;BME280;13247;47.504;7.382;2023-02-28T09:19:01;97823.28;;;0.01;100.00
21817;BME280;13247;47.504;7.382;2023-02-28T09:21:46;97830.91;;;-0.05;100.00
21817;BME280;13247;47.504;7.382;2023-02-28T09:24:30;97824.25;;;0.06;100.00
21817;BME280;13247;47.504;7.382;2023-02-28T09:27:16;97839.84;;;0.15;100.00
21817;BME280;13247;47.504;7.382;2023-02-28T09:30:00;97842.03;;;0.43;100.00
21817;BME280;13247;47.504;7.382;2023-02-28T09:32:45;97838.59;;;0.43;100.00
21817;BME280;13247;47.504;7.382;2023-02-28T09:35:36;97848.38;;;0.11;100.00
21817;BME280;13247;47.504;7.382;2023-02-28T09:38:22;97847.47;;;0.09;100.00
21817;BME280;13247;47.504;7.382;2023-02-28T09:41:25;97844.00;;;0.07;100.00
21817;BME280;13247;47.504;7.382;2023-02-28T09:44:57;97840.59;;;0.08;100.00
21817;BME280;13247;47.504;7.382;2023-02-28T09:47:39;97836.06;;;-0.07;100.00
21817;BME280;13247;47.504;7.382;2023-02-28T09:53:31;97842.91;;;-0.06;100.00
21817;BME280;13247;47.504;7.382;2023-02-28T09:56:28;97851.31;;;0.32;100.00
21817;BME280;13247;47.504;7.382;2023-02-28T10:02:36;97846.47;;;0.01;100.00
21817;BME280;13247;47.504;7.382;2023-02-28T10:05:38;97844.38;;;0.28;100.00
21817;BME280;13247;47.504;7.382;2023-02-28T10:08:45;97854.66;;;0.27;100.00
21817;BME280;13247;47.504;7.382;2023-02-28T10:11:36;97856.34;;;0.23;100.00
21817;BME280;13247;47.504;7.382;2023-02-28T10:14:26;97847.91;;;0.33;100.00
21817;BME280;13247;47.504;7.382;2023-02-28T10:17:18;97855.13;;;0.55;100.00
21817;BME280;13247;47.504;7.382;2023-02-28T10:20:10;97850.38;;;0.27;100.00
21817;BME280;13247;47.504;7.382;2023-02-28T10:26:12;97850.75;;;0.48;100.00
21817;BME280;13247;47.504;7.382;2023-02-28T10:28:58;97851.56;;;0.47;100.00
21817;BME280;13247;47.504;7.382;2023-02-28T10:31:43;97852.66;;;0.61;100.00
21817;BME280;13247;47.504;7.382;2023-02-28T10:34:28;97852.47;;;0.49;100.00
21817;BME280;13247;47.504;7.382;2023-02-28T10:37:13;97853.50;;;0.60;100.00
21817;BME280;13247;47.504;7.382;2023-02-28T10:39:58;97846.47;;;0.50;100.00
21817;BME280;13247;47.504;7.382;2023-02-28T10:42:55;97849.16;;;0.56;100.00
21817;BME280;13247;47.504;7.382;2023-02-28T10:45:53;97855.00;;;0.46;100.00
21817;BME280;13247;47.504;7.382;2023-02-28T10:48:43;97853.91;;;0.86;100.00
21817;BME280;13247;47.504;7.382;2023-02-28T10:51:36;97850.13;;;0.66;100.00
21817;BME280;13247;47.504;7.382;2023-02-28T10:54:31;97855.69;;;0.92;100.00
21817;BME280;13247;47.504;7.382;2023-02-28T10:57:24;97856.66;;;0.98;100.00
21817;BME280;13247;47.504;7.382;2023-02-28T11:00:33;97858.56;;;1.11;100.00
21817;BME280;13247;47.504;7.382;2023-02-28T11:03:33;97869.56;;;1.00;100.00
21817;BME280;13247;47.504;7.382;2023-02-28T11:06:23;97872.84;;;0.87;100.00
21817;BME280;13247;47.504;7.382;2023-02-28T11:09:25;97867.69;;;0.87;100.00
21817;BME280;13247;47.504;7.382;2023-02-28T11:12:39;97864.38;;;0.97;100.00
21817;BME280;13247;47.504;7.382;2023-02-28T11:15:34;97863.44;;;0.90;100.00
21817;BME280;13247;47.504;7.382;2023-02-28T11:18:27;97853.34;;;1.08;100.00
21817;BME280;13247;47.504;7.382;2023-02-28T11:21:29;97844.38;;;1.45;100.00
21817;BME280;13247;47.504;7.382;2023-02-28T11:24:27;97837.63;;;1.56;100.00
21817;BME280;13247;47.504;7.382;2023-02-28T11:30:40;97846.56;;;1.85;100.00
21817;BME280;13247;47.504;7.382;2023-02-28T11:36:15;97848.19;;;1.77;100.00
21817;BME280;13247;47.504;7.382;2023-02-28T11:39:08;97846.38;;;1.70;100.00
21817;BME280;13247;47.504;7.382;2023-02-28T11:45:15;97854.00;;;1.58;100.00
21817;BME280;13247;47.504;7.382;2023-02-28T11:48:16;97844.50;;;1.54;100.00
21817;BME280;13247;47.504;7.382;2023-02-28T11:51:21;97847.03;;;1.51;100.00
21817;BME280;13247;47.504;7.382;2023-02-28T12:09:59;97835.81;;;2.31;100.00
21817;BME280;13247;47.504;7.382;2023-02-28T12:16:16;97840.13;;;2.32;100.00
21817;BME280;13247;47.504;7.382;2023-02-28T12:19:13;97840.16;;;2.34;100.00
21817;BME280;13247;47.504;7.382;2023-02-28T12:27:52;97830.28;;;1.95;100.00
21817;BME280;13247;47.504;7.382;2023-02-28T12:30:49;97832.09;;;2.02;100.00
21817;BME280;13247;47.504;7.382;2023-02-28T12:33:47;97831.47;;;2.29;100.00
21817;BME280;13247;47.504;7.382;2023-02-28T12:36:36;97831.22;;;2.00;100.00
21817;BME280;13247;47.504;7.382;2023-02-28T12:39:38;97837.25;;;2.02;100.00
21817;BME280;13247;47.504;7.382;2023-02-28T12:43:03;97828.38;;;1.78;100.00
21817;BME280;13247;47.504;7.382;2023-02-28T12:46:02;97818.28;;;2.02;100.00
21817;BME280;13247;47.504;7.382;2023-02-28T12:48:53;97828.84;;;2.23;100.00
21817;BME280;13247;47.504;7.382;2023-02-28T12:51:41;97827.97;;;2.24;100.00
21817;BME280;13247;47.504;7.382;2023-02-28T12:54:47;97821.91;;;2.22;100.00
21817;BME280;13247;47.504;7.382;2023-02-28T13:00:33;97820.25;;;2.28;100.00
21817;BME280;13247;47.504;7.382;2023-02-28T13:03:29;97811.06;;;2.64;100.00
21817;BME280;13247;47.504;7.382;2023-02-28T13:06:20;97810.97;;;2.55;100.00
21817;BME280;13247;47.504;7.382;2023-02-28T13:09:18;97812.69;;;2.53;100.00
21817;BME280;13247;47.504;7.382;2023-02-28T13:12:13;97807.59;;;2.65;100.00
21817;BME280;13247;47.504;7.382;2023-02-28T13:15:25;97817.31;;;2.99;100.00
21817;BME280;13247;47.504;7.382;2023-02-28T13:18:44;97823.75;;;2.35;100.00
21817;BME280;13247;47.504;7.382;2023-02-28T13:21:30;97820.53;;;2.62;100.00
21817;BME280;13247;47.504;7.382;2023-02-28T13:36:43;97813.88;;;3.04;100.00
21817;BME280;13247;47.504;7.382;2023-02-28T13:48:00;97818.13;;;2.92;100.00
21817;BME280;13247;47.504;7.382;2023-02-28T13:50:46;97812.19;;;3.02;100.00
21817;BME280;13247;47.504;7.382;2023-02-28T13:53:43;97807.06;;;3.12;100.00
21817;BME280;13247;47.504;7.382;2023-02-28T14:11:56;97817.41;;;3.12;95.28
21817;BME280;13247;47.504;7.382;2023-02-28T14:14:53;97820.03;;;3.22;96.21
21817;BME280;13247;47.504;7.382;2023-02-28T14:17:38;97823.44;;;3.13;96.90
21817;BME280;13247;47.504;7.382;2023-02-28T14:20:26;97821.00;;;3.42;95.19
21817;BME280;13247;47.504;7.382;2023-02-28T14:29:52;97821.09;;;3.69;91.63
21817;BME280;13247;47.504;7.382;2023-02-28T14:36:35;97827.88;;;3.31;96.21
21817;BME280;13247;47.504;7.382;2023-02-28T14:39:25;97827.94;;;3.52;93.56
21817;BME280;13247;47.504;7.382;2023-02-28T14:42:33;97829.72;;;3.68;92.53
21817;BME280;13247;47.504;7.382;2023-02-28T14:45:22;97832.22;;;3.39;89.31
21817;BME280;13247;47.504;7.382;2023-02-28T14:48:10;97834.72;;;3.16;90.73
21817;BME280;13247;47.504;7.382;2023-02-28T14:50:57;97836.53;;;3.40;89.27
21817;BME280;13247;47.504;7.382;2023-02-28T14:53:43;97838.31;;;3.50;91.67
21817;BME280;13247;47.504;7.382;2023-02-28T14:56:34;97834.91;;;3.59;92.71
21817;BME280;13247;47.504;7.382;2023-02-28T14:59:26;97837.41;;;3.42;92.94
21817;BME280;13247;47.504;7.382;2023-02-28T15:02:25;97828.81;;;3.46;93.49
21817;BME280;13247;47.504;7.382;2023-02-28T15:05:16;97840.00;;;3.42;92.56
21817;BME280;13247;47.504;7.382;2023-02-28T15:08:21;97839.94;;;3.32;94.16
21817;BME280;13247;47.504;7.382;2023-02-28T15:11:11;97837.47;;;3.48;93.63
21817;BME280;13247;47.504;7.382;2023-02-28T15:13:57;97838.25;;;3.37;93.73
21817;BME280;13247;47.504;7.382;2023-02-28T15:16:43;97837.38;;;3.33;93.33
21817;BME280;13247;47.504;7.382;2023-02-28T15:19:32;97837.25;;;3.13;96.53
21817;BME280;13247;47.504;7.382;2023-02-28T15:22:31;97838.19;;;3.23;95.86
21817;BME280;13247;47.504;7.382;2023-02-28T15:25:21;97832.34;;;3.72;95.70
21817;BME280;13247;47.504;7.382;2023-02-28T15:28:16;97838.41;;;3.71;90.49
21817;BME280;13247;47.504;7.382;2023-02-28T15:31:03;97843.53;;;3.55;90.54
21817;BME280;13247;47.504;7.382;2023-02-28T15:34:04;97851.31;;;3.56;91.24
21817;BME280;13247;47.504;7.382;2023-02-28T15:36:49;97848.78;;;3.73;88.80
21817;BME280;13247;47.504;7.382;2023-02-28T15:39:49;97845.13;;;3.29;92.20
21817;BME280;13247;47.504;7.382;2023-02-28T15:42:33;97839.13;;;3.40;92.03
21817;BME280;13247;47.504;7.382;2023-02-28T15:45:38;97844.38;;;3.52;94.97
21817;BME280;13247;47.504;7.382;2023-02-28T15:48:29;97844.28;;;3.31;94.35
21817;BME280;13247;47.504;7.382;2023-02-28T15:51:31;97852.00;;;3.24;93.47
21817;BME280;13247;47.504;7.382;2023-02-28T15:54:23;97844.25;;;3.25;96.59
21817;BME280;13247;47.504;7.382;2023-02-28T15:57:15;97842.50;;;3.23;93.69
21817;BME280;13247;47.504;7.382;2023-02-28T16:00:04;97842.47;;;3.21;93.61
21817;BME280;13247;47.504;7.382;2023-02-28T16:02:50;97852.81;;;3.13;94.82
21817;BME280;13247;47.504;7.382;2023-02-28T16:05:35;97857.16;;;3.17;93.37
21817;BME280;13247;47.504;7.382;2023-02-28T16:08:20;97851.06;;;3.08;91.76
21817;BME280;13247;47.504;7.382;2023-02-28T16:11:04;97856.31;;;3.20;92.35
21817;BME280;13247;47.504;7.382;2023-02-28T16:13:50;97849.34;;;3.10;92.59
21817;BME280;13247;47.504;7.382;2023-02-28T16:16:43;97854.56;;;3.19;95.13
21817;BME280;13247;47.504;7.382;2023-02-28T16:19:28;97857.06;;;3.01;94.35
21817;BME280;13247;47.504;7.382;2023-02-28T16:22:13;97863.03;;;2.94;93.92
21817;BME280;13247;47.504;7.382;2023-02-28T16:24:57;97861.47;;;3.14;93.48
21817;BME280;13247;47.504;7.382;2023-02-28T16:27:45;97866.53;;;3.00;97.24
21817;BME280;13247;47.504;7.382;2023-02-28T16:30:33;97868.34;;;3.12;93.83
21817;BME280;13247;47.504;7.382;2023-02-28T16:33:18;97872.56;;;2.95;94.19
21817;BME280;13247;47.504;7.382;2023-02-28T16:36:03;97874.41;;;3.12;94.90
21817;BME280;13247;47.504;7.382;2023-02-28T16:38:48;97882.19;;;3.17;94.67
21817;BME280;13247;47.504;7.382;2023-02-28T16:41:34;97887.19;;;2.88;94.64
21817;BME280;13247;47.504;7.382;2023-02-28T16:44:29;97899.25;;;2.88;95.77
21817;BME280;13247;47.504;7.382;2023-02-28T16:47:14;97899.28;;;2.91;96.52
21817;BME280;13247;47.504;7.382;2023-02-28T16:49:58;97904.50;;;2.97;96.20
21817;BME280;13247;47.504;7.382;2023-02-28T16:52:43;97899.25;;;2.89;97.60
21817;BME280;13247;47.504;7.382;2023-02-28T16:55:28;97903.56;;;2.84;93.97
21817;BME280;13247;47.504;7.382;2023-02-28T16:58:16;97903.56;;;2.87;97.21
21817;BME280;13247;47.504;7.382;2023-02-28T17:01:03;97898.38;;;2.83;98.15
21817;BME280;13247;47.504;7.382;2023-02-28T17:03:48;97912.28;;;2.95;96.86